createdAt,value
2023-01-04T00:00:04.763Z,6.00
2023-01-04T00:02:31.075Z,6.28
2023-01-04T00:04:57.304Z,6.85
2023-01-04T00:07:23.489Z,6.07
2023-01-04T00:09:49.609Z,6.38
2023-01-04T00:12:15.740Z,6.40
2023-01-04T00:14:41.910Z,7.20
2023-01-04T00:17:08.487Z,6.82
2023-01-04T00:19:34.652Z,7.50
2023-01-04T00:22:00.813Z,6.88
2023-01-04T00:24:26.975Z,6.65
2023-01-04T00:26:53.123Z,7.35
2023-01-04T00:29:19.310Z,7.18
2023-01-04T00:31:45.586Z,7.35
2023-01-04T00:34:11.856Z,7.32
2023-01-04T00:36:38.136Z,8.30
2023-01-04T00:39:04.338Z,7.18
2023-01-04T00:41:57.679Z,8.50
2023-01-04T00:44:16.701Z,7.55
2023-01-04T00:46:42.899Z,7.88
2023-01-04T00:49:09.059Z,8.13
2023-01-04T00:51:35.221Z,7.78
2023-01-04T00:54:01.352Z,8.23
2023-01-04T00:56:27.507Z,7.38
2023-01-04T00:58:53.705Z,9.05
2023-01-04T01:01:19.960Z,8.95
2023-01-04T01:03:46.265Z,8.18
2023-01-04T01:06:12.548Z,8.02
2023-01-04T01:08:38.744Z,9.00
2023-01-04T01:11:04.892Z,8.50
2023-01-04T01:13:31.096Z,9.55
2023-01-04T01:15:57.330Z,9.10
2023-01-04T01:18:23.520Z,9.57
2023-01-04T01:20:49.721Z,9.90
2023-01-04T01:23:15.870Z,9.63
2023-01-04T01:25:42.045Z,10.88
2023-01-04T01:28:08.213Z,10.63
2023-01-04T01:30:34.384Z,10.35
2023-01-04T01:33:00.563Z,10.38
2023-01-04T01:35:26.718Z,10.60
2023-01-04T01:37:52.917Z,9.73
2023-01-04T01:40:19.081Z,10.82
2023-01-04T01:42:45.239Z,10.50
2023-01-04T01:45:11.419Z,9.95
2023-01-04T01:47:37.563Z,11.32
2023-01-04T01:50:03.727Z,11.38
2023-01-04T01:52:29.920Z,10.95
2023-01-04T01:54:56.109Z,11.98
2023-01-04T01:57:22.267Z,11.10
2023-01-04T01:59:48.438Z,12.40
2023-01-04T02:02:14.740Z,8.43
2023-01-04T02:04:41.015Z,10.50
2023-01-04T02:07:07.168Z,10.13
2023-01-04T02:09:33.341Z,10.95
2023-01-04T02:11:59.497Z,10.55
2023-01-04T02:14:25.634Z,8.90
2023-01-04T02:16:51.885Z,13.45
2023-01-04T02:19:18.058Z,9.73
2023-01-04T02:21:44.247Z,12.25
2023-01-04T02:24:10.460Z,8.23
2023-01-04T02:26:36.660Z,10.98
2023-01-04T02:29:02.821Z,12.35
2023-01-04T02:31:29.034Z,12.43
2023-01-04T02:33:55.297Z,11.85
2023-01-04T02:36:21.505Z,11.98
2023-01-04T02:38:47.728Z,11.68
2023-01-04T02:41:13.892Z,10.98
2023-01-04T02:43:40.060Z,10.93
2023-01-04T02:46:06.245Z,12.57
2023-01-04T02:48:32.407Z,11.15
2023-01-04T02:50:58.630Z,9.50
2023-01-04T02:53:24.917Z,11.32
2023-01-04T02:55:51.092Z,6.55
2023-01-04T02:58:17.227Z,12.98
2023-01-04T03:00:43.388Z,13.95
2023-01-04T03:03:09.762Z,9.52
2023-01-04T03:05:36.019Z,10.27
2023-01-04T03:08:02.161Z,9.98
2023-01-04T03:10:28.306Z,10.43
2023-01-04T03:12:54.433Z,13.00
2023-01-04T03:15:20.562Z,11.52
2023-01-04T03:17:46.736Z,12.50
2023-01-04T03:20:12.932Z,12.07
2023-01-04T03:22:39.140Z,12.77
2023-01-04T03:25:05.273Z,11.65
2023-01-04T03:27:31.419Z,11.57
2023-01-04T03:29:57.585Z,11.18
2023-01-04T03:32:23.753Z,10.85
2023-01-04T03:34:49.941Z,11.77
2023-01-04T03:37:16.065Z,10.95
2023-01-04T03:39:42.221Z,10.60
2023-01-04T03:42:08.427Z,10.10
2023-01-04T03:44:34.549Z,9.43
2023-01-04T03:47:00.785Z,8.88
2023-01-04T03:49:26.981Z,8.23
2023-01-04T03:51:53.133Z,6.70
2023-01-04T03:54:19.294Z,9.30
2023-01-04T03:56:45.476Z,8.38
2023-01-04T03:59:11.641Z,6.43
2023-01-04T04:01:37.885Z,6.03
2023-01-04T04:04:04.223Z,8.15
2023-01-04T04:06:30.442Z,9.38
2023-01-04T04:08:56.613Z,7.90
2023-01-04T04:11:22.786Z,9.23
2023-01-04T04:13:48.966Z,7.22
2023-01-04T04:16:15.206Z,10.00
2023-01-04T04:18:41.423Z,7.93
2023-01-04T04:21:07.576Z,8.93
2023-01-04T04:23:33.746Z,5.97
2023-01-04T04:25:59.947Z,7.30
2023-01-04T04:28:26.152Z,10.35
2023-01-04T04:30:52.285Z,9.05
2023-01-04T04:33:18.437Z,10.13
2023-01-04T04:35:44.600Z,11.18
2023-01-04T04:38:10.814Z,7.22
2023-01-04T04:40:36.964Z,9.85
2023-01-04T04:43:03.461Z,11.95
2023-01-04T04:45:29.624Z,12.80
2023-01-04T04:47:55.851Z,8.88
2023-01-04T04:50:21.969Z,12.93
2023-01-04T04:52:54.041Z,9.93
2023-01-04T04:55:21.995Z,14.00
2023-01-04T04:57:48.165Z,9.07
2023-01-04T05:00:14.361Z,11.30
2023-01-04T05:02:40.531Z,13.15
2023-01-04T05:05:06.815Z,15.18
2023-01-04T05:07:33.129Z,15.68
2023-01-04T05:09:59.295Z,13.82
2023-01-04T05:12:25.432Z,14.45
2023-01-04T05:14:51.591Z,16.00
2023-01-04T05:17:17.752Z,12.85
2023-01-04T05:19:43.908Z,11.65
2023-01-04T05:22:10.646Z,14.15
2023-01-04T05:24:36.767Z,12.48
2023-01-04T05:27:02.888Z,11.27
2023-01-04T05:29:29.032Z,11.50
2023-01-04T05:31:55.246Z,14.20
2023-01-04T05:34:22.482Z,12.70
2023-01-04T05:36:48.789Z,11.55
2023-01-04T05:39:14.962Z,14.45
2023-01-04T05:41:41.119Z,12.50
2023-01-04T05:44:07.277Z,14.48
2023-01-04T05:46:33.563Z,14.00
2023-01-04T05:48:59.760Z,12.88
2023-01-04T05:51:25.883Z,12.73
2023-01-04T05:53:52.098Z,12.70
2023-01-04T05:56:18.248Z,11.55
2023-01-04T05:58:44.705Z,13.25
2023-01-04T06:01:10.902Z,14.27
2023-01-04T06:03:37.203Z,12.80
2023-01-04T06:06:03.474Z,14.63
2023-01-04T06:08:29.614Z,11.68
2023-01-04T06:10:55.738Z,12.85
2023-01-04T06:13:21.952Z,13.35
2023-01-04T06:15:48.121Z,13.48
2023-01-04T06:18:14.283Z,12.35
2023-01-04T06:20:40.554Z,12.82
2023-01-04T06:23:06.725Z,13.57
2023-01-04T06:25:32.876Z,11.15
2023-01-04T06:27:59.061Z,12.25
2023-01-04T06:30:25.242Z,11.52
2023-01-04T06:32:51.488Z,11.38
2023-01-04T06:35:17.620Z,10.95
2023-01-04T06:37:43.774Z,11.32
2023-01-04T06:40:09.952Z,10.23
2023-01-04T06:42:36.231Z,10.57
2023-01-04T06:45:02.357Z,10.98
2023-01-04T06:47:28.494Z,11.63
2023-01-04T06:49:54.620Z,10.88
2023-01-04T06:52:20.797Z,10.75
2023-01-04T06:54:46.995Z,11.13
2023-01-04T06:57:13.188Z,9.77
2023-01-04T06:59:39.352Z,9.50
2023-01-04T07:02:05.601Z,9.85
2023-01-04T07:04:31.932Z,7.93
2023-01-04T07:06:58.062Z,8.20
2023-01-04T07:09:24.244Z,8.02
2023-01-04T07:11:50.408Z,8.07
2023-01-04T07:14:16.554Z,8.50
2023-01-04T07:16:42.996Z,8.10
2023-01-04T07:19:09.238Z,7.00
2023-01-04T07:21:35.451Z,5.75
2023-01-04T07:24:01.693Z,7.05
2023-01-04T07:26:27.834Z,7.68
2023-01-04T07:28:54.030Z,7.95
2023-01-04T07:31:20.539Z,8.73
2023-01-04T07:33:46.737Z,8.38
2023-01-04T07:36:12.890Z,7.28
2023-01-04T07:38:39.275Z,7.45
2023-01-04T07:41:05.466Z,7.35
2023-01-04T07:43:31.662Z,6.70
2023-01-04T07:45:57.902Z,7.10
2023-01-04T07:48:24.200Z,6.22
2023-01-04T07:50:50.541Z,6.35
2023-01-04T07:53:16.756Z,5.15
2023-01-04T07:55:42.920Z,5.32
2023-01-04T07:58:09.050Z,5.25
2023-01-04T08:00:35.178Z,5.32
2023-01-04T08:03:01.351Z,4.43
2023-01-04T08:05:27.598Z,3.95
2023-01-04T08:07:53.805Z,3.35
2023-01-04T08:10:19.959Z,3.00
2023-01-04T08:12:46.178Z,3.15
2023-01-04T08:15:12.367Z,3.50
2023-01-04T08:17:38.559Z,3.08
2023-01-04T08:20:04.769Z,3.08
2023-01-04T08:22:30.975Z,2.90
2023-01-04T08:24:57.176Z,3.00
2023-01-04T08:27:23.348Z,2.63
2023-01-04T08:29:49.473Z,3.25
2023-01-04T08:32:15.647Z,1.90
2023-01-04T08:34:41.822Z,2.50
2023-01-04T08:37:09.263Z,2.28
2023-01-04T08:39:35.461Z,1.58
2023-01-04T08:42:13.476Z,2.25
2023-01-04T08:44:45.290Z,1.70
2023-01-04T08:47:11.455Z,1.30
2023-01-04T08:49:37.660Z,1.58
2023-01-04T08:52:03.822Z,1.83
2023-01-04T08:54:30.049Z,1.45
2023-01-04T08:56:56.285Z,2.03
2023-01-04T08:59:22.467Z,1.60
2023-01-04T09:01:48.718Z,1.08
2023-01-04T09:04:15.017Z,1.20
2023-01-04T09:06:41.203Z,1.15
2023-01-04T09:09:07.432Z,1.23
2023-01-04T09:11:33.595Z,1.30
2023-01-04T09:14:07.387Z,0.90
2023-01-04T09:16:34.938Z,1.20
2023-01-04T09:19:01.221Z,1.10
2023-01-04T09:21:27.432Z,1.20
2023-01-04T09:23:53.620Z,1.38
2023-01-04T09:26:20.830Z,1.25
2023-01-04T09:28:47.009Z,1.85
2023-01-04T09:31:13.257Z,1.15
2023-01-04T09:34:12.253Z,1.17
2023-01-04T09:36:25.650Z,0.90
2023-01-04T09:38:51.809Z,1.13
2023-01-04T09:41:17.963Z,1.10
2023-01-04T09:43:44.171Z,1.25
2023-01-04T09:46:10.346Z,1.00
2023-01-04T09:48:36.570Z,1.30
2023-01-04T09:51:02.739Z,1.20
2023-01-04T09:53:28.919Z,1.25
2023-01-04T09:55:55.097Z,1.23
2023-01-04T09:58:21.229Z,1.30
2023-01-04T10:00:47.396Z,1.30
2023-01-04T10:03:13.790Z,1.08
2023-01-04T10:05:40.070Z,1.50
2023-01-04T10:08:06.240Z,1.30
2023-01-04T10:10:32.465Z,1.00
2023-01-04T10:13:00.140Z,1.20
2023-01-04T10:15:26.367Z,1.10
2023-01-04T10:23:24.897Z,1.20
2023-01-04T10:25:51.102Z,1.23
2023-01-04T10:28:17.346Z,0.98
2023-01-04T10:30:43.515Z,1.17
2023-01-04T10:33:09.762Z,1.25
2023-01-04T10:35:35.997Z,1.13
2023-01-04T10:38:02.125Z,1.20
2023-01-04T10:40:28.343Z,1.00
2023-01-04T10:42:54.531Z,0.93
2023-01-04T10:45:20.656Z,1.30
2023-01-04T10:47:46.880Z,1.00
2023-01-04T10:50:13.052Z,1.40
2023-01-04T10:52:39.230Z,1.27
2023-01-04T10:55:05.389Z,1.20
2023-01-04T10:57:31.614Z,1.40
2023-01-04T10:59:57.737Z,1.30
2023-01-04T11:02:24.080Z,0.98
2023-01-04T11:04:50.415Z,1.08
2023-01-04T11:07:16.573Z,1.23
2023-01-04T11:09:42.692Z,1.33
2023-01-04T11:12:09.157Z,1.30
2023-01-04T11:14:37.488Z,1.40
2023-01-04T11:17:03.891Z,1.08
2023-01-04T11:19:30.061Z,1.20
2023-01-04T11:21:56.255Z,1.00
2023-01-04T11:24:32.276Z,1.40
2023-01-04T11:26:59.285Z,1.35
2023-01-04T11:29:25.492Z,1.27
2023-01-04T11:31:51.818Z,1.30
2023-01-04T11:34:18.099Z,1.50
2023-01-04T11:36:44.246Z,1.10
2023-01-04T11:39:10.427Z,1.42
2023-01-04T11:41:36.599Z,1.40
2023-01-04T11:44:02.771Z,1.38
2023-01-04T11:46:28.911Z,1.27
2023-01-04T11:48:55.116Z,1.55
2023-01-04T11:51:21.383Z,1.40
2023-01-04T11:53:47.610Z,1.27
2023-01-04T11:56:13.834Z,1.27
2023-01-04T11:58:40.012Z,1.50
2023-01-04T12:01:06.229Z,1.60
2023-01-04T12:03:32.430Z,1.35
2023-01-04T12:05:58.628Z,1.42
2023-01-04T12:08:24.841Z,1.30
2023-01-04T12:10:51.005Z,1.38
2023-01-04T12:13:17.160Z,1.30
2023-01-04T12:15:43.519Z,1.48
2023-01-04T12:18:09.738Z,1.40
2023-01-04T12:20:35.987Z,1.65
2023-01-04T12:23:02.176Z,1.40
2023-01-04T12:25:28.394Z,1.70
2023-01-04T12:27:54.574Z,1.65
2023-01-04T12:30:20.954Z,0.93
2023-01-04T12:32:48.198Z,1.10
2023-01-04T12:35:14.417Z,1.17
2023-01-04T12:37:40.653Z,1.10
2023-01-04T12:40:06.794Z,1.27
2023-01-04T12:42:32.947Z,1.80
2023-01-04T12:44:59.127Z,1.90
2023-01-04T12:47:25.402Z,1.60
2023-01-04T12:49:51.550Z,1.60
2023-01-04T12:52:32.466Z,1.38
2023-01-04T12:55:04.319Z,1.30
2023-01-04T12:57:35.067Z,1.23
2023-01-04T13:00:03.363Z,1.40
2023-01-04T13:02:29.850Z,1.55
2023-01-04T13:05:25.858Z,1.58
2023-01-04T13:07:42.367Z,1.33
2023-01-04T13:10:08.571Z,1.30
2023-01-04T13:12:34.948Z,1.30
2023-01-04T13:15:01.149Z,1.90
2023-01-04T13:17:27.379Z,1.83
2023-01-04T13:19:53.536Z,1.20
2023-01-04T13:22:24.947Z,1.30
2023-01-04T13:24:54.721Z,1.17
2023-01-04T13:27:21.098Z,1.50
2023-01-04T13:29:47.341Z,1.40
2023-01-04T13:32:13.553Z,1.25
2023-01-04T13:34:39.794Z,1.60
2023-01-04T13:37:05.986Z,1.67
2023-01-04T13:39:32.193Z,1.45
2023-01-04T13:41:58.417Z,1.08
2023-01-04T13:44:33.006Z,1.60
2023-01-04T13:47:10.571Z,1.25
2023-01-04T13:49:36.771Z,1.30
2023-01-04T13:52:34.868Z,1.48
2023-01-04T13:54:49.089Z,1.20
2023-01-04T13:57:15.193Z,1.52
2023-01-04T13:59:41.327Z,1.38
2023-01-04T14:02:07.577Z,1.58
2023-01-04T14:04:33.920Z,1.38
2023-01-04T14:07:01.304Z,1.13
2023-01-04T14:09:27.456Z,1.45
2023-01-04T14:11:53.575Z,2.53
2023-01-04T14:14:19.827Z,1.73
2023-01-04T14:16:45.990Z,1.80
2023-01-04T14:19:12.199Z,1.50
2023-01-04T14:21:38.430Z,2.22
2023-01-04T14:24:04.640Z,1.83
2023-01-04T14:26:30.825Z,1.10
2023-01-04T14:28:56.992Z,2.10
2023-01-04T14:31:23.189Z,1.08
2023-01-04T14:33:49.393Z,1.80
2023-01-04T14:36:15.621Z,1.25
2023-01-04T14:38:41.772Z,1.17
2023-01-04T14:41:07.943Z,1.50
2023-01-04T14:43:34.120Z,1.27
2023-01-04T14:46:00.277Z,1.60
2023-01-04T14:48:26.446Z,1.40
2023-01-04T14:50:52.643Z,1.60
2023-01-04T14:53:18.829Z,1.10
2023-01-04T14:55:45.016Z,1.33
2023-01-04T14:58:11.159Z,0.98
2023-01-04T15:00:37.397Z,1.00
2023-01-04T15:03:03.732Z,1.23
2023-01-04T15:05:34.118Z,1.20
2023-01-04T15:08:01.980Z,1.10
2023-01-04T15:10:28.313Z,1.40
2023-01-04T15:12:54.464Z,1.10
2023-01-04T15:15:20.599Z,1.20
2023-01-04T15:17:46.771Z,1.23
2023-01-04T15:20:12.963Z,1.13
2023-01-04T15:22:39.196Z,1.50
2023-01-04T15:25:05.365Z,1.20
2023-01-04T15:27:34.528Z,1.23
2023-01-04T15:30:04.595Z,1.08
2023-01-04T15:32:30.790Z,1.13
2023-01-04T15:34:56.931Z,1.10
2023-01-04T15:37:24.108Z,1.10
2023-01-04T15:39:51.574Z,1.05
2023-01-04T15:42:20.340Z,1.25
2023-01-04T15:44:46.532Z,1.48
2023-01-04T15:47:12.760Z,1.27
2023-01-04T15:49:38.931Z,1.35
2023-01-04T15:52:05.103Z,0.90
2023-01-04T15:54:31.453Z,1.08
2023-01-04T15:56:57.615Z,1.55
2023-01-04T15:59:23.786Z,0.93
2023-01-04T16:01:50.474Z,1.17
2023-01-04T16:04:19.459Z,1.85
2023-01-04T16:06:45.659Z,1.92
2023-01-04T16:09:11.865Z,1.73
2023-01-04T16:11:38.028Z,1.60
2023-01-04T16:14:04.219Z,1.70
2023-01-04T16:16:30.537Z,1.55
2023-01-04T16:18:56.761Z,1.50
2023-01-04T16:21:22.935Z,1.63
2023-01-04T16:23:49.087Z,1.60
2023-01-04T16:26:15.993Z,1.10
2023-01-04T16:28:42.191Z,1.00
2023-01-04T16:31:09.674Z,1.63
2023-01-04T16:33:35.897Z,1.38
2023-01-04T16:36:02.046Z,1.67
2023-01-04T16:38:28.340Z,1.25
2023-01-04T16:40:54.469Z,1.02
2023-01-04T16:43:20.852Z,0.85
2023-01-04T16:45:47.083Z,0.90
2023-01-04T16:48:18.317Z,1.27
2023-01-04T16:50:44.797Z,1.52
2023-01-04T16:53:10.986Z,1.10
2023-01-04T16:55:37.160Z,2.42
2023-01-04T16:58:03.290Z,1.00
2023-01-04T17:00:29.741Z,1.60
2023-01-04T17:02:55.969Z,1.30
2023-01-04T17:05:25.225Z,1.50
2023-01-04T17:07:51.697Z,1.02
2023-01-04T17:10:17.920Z,1.05
2023-01-04T17:12:47.557Z,1.50
2023-01-04T17:15:42.058Z,1.20
2023-01-04T17:18:00.581Z,1.42
2023-01-04T17:20:26.763Z,1.60
2023-01-04T17:22:52.971Z,1.35
2023-01-04T17:25:19.158Z,2.63
2023-01-04T17:27:45.356Z,1.05
2023-01-04T17:30:11.655Z,1.70
2023-01-04T17:32:37.809Z,1.00
2023-01-04T17:35:03.982Z,1.65
2023-01-04T17:37:30.132Z,1.05
2023-01-04T17:39:56.314Z,1.08
2023-01-04T17:42:22.431Z,1.52
2023-01-04T17:44:52.025Z,1.40
2023-01-04T17:47:18.236Z,1.63
2023-01-04T17:49:44.419Z,1.80
2023-01-04T17:52:14.914Z,1.20
2023-01-04T17:54:44.520Z,1.80
2023-01-04T17:57:10.750Z,1.60
2023-01-04T17:59:36.936Z,2.05
2023-01-04T18:02:03.192Z,2.05
2023-01-04T18:04:29.567Z,1.88
2023-01-04T18:06:55.725Z,1.40
2023-01-04T18:09:24.568Z,1.65
2023-01-04T18:11:50.798Z,1.92
2023-01-04T18:14:16.960Z,1.58
2023-01-04T18:16:43.128Z,2.05
2023-01-04T18:19:09.368Z,1.98
2023-01-04T18:21:35.484Z,1.52
2023-01-04T18:24:35.508Z,1.55
2023-01-04T18:29:36.247Z,1.70
2023-01-04T18:32:02.476Z,1.80
2023-01-04T18:34:28.709Z,1.75
2023-01-04T18:36:54.968Z,1.60
2023-01-04T18:39:21.152Z,1.77
2023-01-04T18:41:47.380Z,1.90
2023-01-04T18:44:32.041Z,1.77
2023-01-04T18:46:59.352Z,1.48
2023-01-04T18:49:25.483Z,2.03
2023-01-04T18:51:51.654Z,1.60
2023-01-04T18:54:17.844Z,1.83
2023-01-04T18:56:44.093Z,2.20
2023-01-04T18:59:10.305Z,1.70
2023-01-04T19:01:36.594Z,1.55
2023-01-04T19:04:02.840Z,3.00
2023-01-04T19:06:29.012Z,2.20
2023-01-04T19:08:58.121Z,2.72
2023-01-04T19:11:26.416Z,2.35
2023-01-04T19:13:52.693Z,2.08
2023-01-04T19:16:18.942Z,2.72
2023-01-04T19:18:45.153Z,2.65
2023-01-04T19:21:11.454Z,2.85
2023-01-04T19:23:37.691Z,1.75
2023-01-04T19:26:03.832Z,1.63
2023-01-04T19:28:29.993Z,2.10
2023-01-04T19:30:56.395Z,1.88
2023-01-04T19:33:22.565Z,2.45
2023-01-04T19:35:48.707Z,1.88
2023-01-04T19:38:15.026Z,1.52
2023-01-04T19:40:41.233Z,2.00
2023-01-04T19:43:07.379Z,1.42
2023-01-04T19:45:33.661Z,2.55
2023-01-04T19:47:59.905Z,2.38
2023-01-04T19:50:26.092Z,2.45
2023-01-04T19:52:52.243Z,1.90
2023-01-04T19:55:18.422Z,2.38
2023-01-04T19:57:44.678Z,2.10
2023-01-04T20:00:10.822Z,1.45
2023-01-04T20:02:37.118Z,1.45
2023-01-04T20:05:03.415Z,1.80
2023-01-04T20:07:29.886Z,1.80
2023-01-04T20:09:56.070Z,1.63
2023-01-04T20:12:22.212Z,1.30
2023-01-04T20:14:48.444Z,2.00
2023-01-04T20:17:14.687Z,1.58
2023-01-04T20:19:40.926Z,1.55
2023-01-04T20:22:07.419Z,1.77
2023-01-04T20:24:33.613Z,1.38
2023-01-04T20:26:59.936Z,1.80
2023-01-04T20:29:26.218Z,1.40
2023-01-04T20:31:53.373Z,1.55
2023-01-04T20:34:19.567Z,2.00
2023-01-04T20:36:45.728Z,1.55
2023-01-04T20:39:11.905Z,1.48
2023-01-04T20:41:38.048Z,1.63
2023-01-04T20:44:04.191Z,1.52
2023-01-04T20:46:30.553Z,1.60
2023-01-04T20:48:56.804Z,1.67
2023-01-04T20:51:23.010Z,1.40
2023-01-04T20:53:49.238Z,1.80
2023-01-04T20:56:15.561Z,1.27
2023-01-04T20:58:41.713Z,1.52
2023-01-04T21:01:07.903Z,1.75
2023-01-04T21:03:34.141Z,1.67
2023-01-04T21:06:00.743Z,2.05
2023-01-04T21:08:27.989Z,1.40
2023-01-04T21:10:57.204Z,1.50
2023-01-04T21:13:23.339Z,1.33
2023-01-04T21:15:49.566Z,1.50
2023-01-04T21:18:15.789Z,1.30
2023-01-04T21:20:41.973Z,1.55
2023-01-04T21:23:08.218Z,1.38
2023-01-04T21:25:34.388Z,1.15
2023-01-04T21:28:00.631Z,1.30
2023-01-04T21:30:27.049Z,1.30
2023-01-04T21:32:58.451Z,2.10
2023-01-04T21:35:27.646Z,1.55
2023-01-04T21:37:53.931Z,1.55
2023-01-04T21:40:21.131Z,1.52
2023-01-04T21:42:47.319Z,1.70
2023-01-04T21:45:13.483Z,1.70
2023-01-04T21:47:39.682Z,1.10
2023-01-04T21:50:05.842Z,1.75
2023-01-04T21:52:32.054Z,1.42
2023-01-04T21:54:58.236Z,1.20
2023-01-04T21:57:24.395Z,1.30
2023-01-04T21:59:50.758Z,1.50
2023-01-04T22:02:17.037Z,1.55
2023-01-04T22:04:43.386Z,1.23
2023-01-04T22:07:09.599Z,1.50
2023-01-04T22:09:35.754Z,2.60
2023-01-04T22:12:01.977Z,1.52
2023-01-04T22:14:28.113Z,1.55
2023-01-04T22:16:54.316Z,1.60
2023-01-04T22:19:20.515Z,1.83
2023-01-04T22:21:46.691Z,1.30
2023-01-04T22:24:12.899Z,1.08
2023-01-04T22:26:39.081Z,1.10
2023-01-04T22:29:05.252Z,1.20
2023-01-04T22:31:33.523Z,1.38
2023-01-04T22:33:59.728Z,0.98
2023-01-04T22:36:25.921Z,1.48
2023-01-04T22:38:52.172Z,1.70
2023-01-04T22:41:18.398Z,1.40
2023-01-04T22:43:44.537Z,1.05
2023-01-04T22:46:10.768Z,1.38
2023-01-04T22:48:36.949Z,1.10
2023-01-04T22:51:03.137Z,1.30
2023-01-04T22:53:29.259Z,1.52
2023-01-04T22:58:45.372Z,0.82
2023-01-04T23:01:14.571Z,0.93
2023-01-04T23:03:40.855Z,1.13
2023-01-04T23:06:07.090Z,1.30
2023-01-04T23:08:33.311Z,1.08
2023-01-04T23:10:59.476Z,0.85
2023-01-04T23:13:25.657Z,1.10
2023-01-04T23:15:51.964Z,1.00
2023-01-04T23:18:18.131Z,1.38
2023-01-04T23:20:44.249Z,1.30
2023-01-04T23:23:10.421Z,1.30
2023-01-04T23:25:36.623Z,1.20
2023-01-04T23:28:02.796Z,0.98
2023-01-04T23:30:28.995Z,1.13
2023-01-04T23:32:55.148Z,0.98
2023-01-04T23:35:21.389Z,1.08
2023-01-04T23:37:47.514Z,1.30
2023-01-04T23:40:13.640Z,1.40
2023-01-04T23:42:39.799Z,1.83
2023-01-04T23:45:06.022Z,1.55
2023-01-04T23:47:32.183Z,0.90
2023-01-04T23:49:58.288Z,1.30
2023-01-04T23:52:24.494Z,1.00
2023-01-04T23:54:50.674Z,1.20
2023-01-04T23:57:16.857Z,2.20
2023-01-04T23:59:43.011Z,1.67
